createdAt,value
2022-09-02T00:05:02.863Z,39.10
2022-09-02T00:11:15.376Z,39.10
2022-09-02T00:17:26.856Z,38.70
2022-09-02T00:23:39.275Z,38.50
2022-09-02T00:29:49.998Z,38.20
2022-09-02T00:35:57.662Z,37.90
2022-09-02T00:42:08.383Z,37.50
2022-09-02T00:48:21.744Z,37.20
2022-09-02T00:54:33.781Z,37.10
2022-09-02T01:00:46.606Z,37.10
2022-09-02T01:06:55.819Z,37.10
2022-09-02T01:13:09.346Z,37.10
2022-09-02T01:19:24.823Z,36.90
2022-09-02T01:25:36.999Z,36.70
2022-09-02T01:31:48.480Z,36.50
2022-09-02T01:37:59.824Z,36.40
2022-09-02T01:44:10.835Z,36.20
2022-09-02T01:50:21.417Z,36.10
2022-09-02T01:56:30.617Z,35.90
2022-09-02T02:02:43.322Z,35.90
2022-09-02T02:08:53.325Z,35.70
2022-09-02T02:15:05.709Z,35.80
2022-09-02T02:21:18.067Z,35.70
2022-09-02T02:27:30.343Z,35.60
2022-09-02T02:33:41.440Z,35.60
2022-09-02T02:39:53.318Z,35.40
2022-09-02T02:46:03.472Z,35.30
2022-09-02T02:52:16.360Z,35.50
2022-09-02T02:58:29.393Z,35.20
2022-09-02T03:04:40.482Z,35.20
2022-09-02T03:10:54.394Z,35.20
2022-09-02T03:17:07.679Z,35.30
2022-09-02T03:23:21.179Z,35.20
2022-09-02T03:29:33.338Z,35.10
2022-09-02T03:35:54.586Z,35.10
2022-09-02T03:42:07.179Z,35.00
2022-09-02T03:48:18.511Z,35.70
2022-09-02T03:54:31.198Z,35.70
2022-09-02T04:00:43.560Z,35.80
2022-09-02T04:06:54.108Z,35.90
2022-09-02T04:13:04.738Z,35.90
2022-09-02T04:19:17.262Z,36.00
2022-09-02T04:25:28.802Z,37.50
2022-09-02T04:31:41.249Z,37.60
2022-09-02T04:37:52.799Z,37.50
2022-09-02T04:44:05.609Z,37.40
2022-09-02T04:50:20.387Z,38.00
2022-09-02T04:56:32.748Z,38.70
2022-09-02T05:02:46.832Z,38.50
2022-09-02T05:08:56.998Z,38.60
2022-09-02T05:15:09.332Z,38.60
2022-09-02T05:21:22.729Z,39.20
2022-09-02T05:27:36.985Z,39.40
2022-09-02T05:33:50.631Z,39.30
2022-09-02T05:40:01.978Z,39.20
2022-09-02T05:46:14.172Z,39.30
2022-09-02T05:52:26.509Z,39.60
2022-09-02T05:58:37.786Z,39.70
2022-09-02T06:04:47.422Z,39.60
2022-09-02T06:10:56.244Z,39.50
2022-09-02T06:17:07.701Z,39.60
2022-09-02T06:23:20.636Z,39.90
2022-09-02T06:29:32.127Z,40.00
2022-09-02T06:35:46.980Z,39.90
2022-09-02T06:41:57.648Z,39.90
2022-09-02T06:48:11.784Z,39.80
2022-09-02T06:54:23.120Z,40.20
2022-09-02T07:00:37.121Z,40.40
2022-09-02T07:06:48.794Z,40.20
2022-09-02T07:12:59.531Z,40.20
2022-09-02T07:19:14.131Z,40.20
2022-09-02T07:25:22.485Z,40.50
2022-09-02T07:31:34.803Z,40.60
2022-09-02T07:37:46.537Z,40.40
2022-09-02T07:43:59.571Z,40.40
2022-09-02T07:50:21.743Z,40.50
2022-09-02T07:56:26.747Z,40.50
2022-09-02T08:02:36.816Z,40.60
2022-09-02T08:08:48.350Z,40.60
2022-09-02T08:15:00.528Z,40.60
2022-09-02T08:21:12.847Z,40.70
2022-09-02T08:27:22.339Z,40.90
2022-09-02T08:33:34.769Z,41.00
2022-09-02T08:39:47.163Z,40.90
2022-09-02T08:45:58.787Z,41.00
2022-09-02T08:52:10.921Z,41.10
2022-09-02T08:58:27.012Z,41.10
2022-09-02T09:04:51.231Z,41.10
2022-09-02T09:11:03.903Z,41.10
2022-09-02T09:17:15.145Z,41.30
2022-09-02T09:23:36.488Z,41.30
2022-09-02T09:29:48.903Z,41.40
2022-09-02T09:36:02.376Z,41.40
2022-09-02T09:42:13.724Z,41.30
2022-09-02T09:48:34.120Z,41.30
2022-09-02T09:54:44.621Z,41.50
2022-09-02T10:00:57.094Z,41.50
2022-09-02T10:07:10.655Z,41.50
2022-09-02T10:13:29.475Z,41.60
2022-09-02T10:19:45.314Z,41.60
2022-09-02T10:26:04.570Z,41.70
2022-09-02T10:32:38.349Z,41.80
2022-09-02T10:38:49.865Z,41.70
2022-09-02T10:45:02.456Z,42.30
2022-09-02T10:51:19.199Z,41.80
2022-09-02T10:57:33.064Z,42.50
2022-09-02T11:03:45.783Z,41.90
2022-09-02T11:10:04.082Z,41.90
2022-09-02T11:16:16.581Z,41.90
2022-09-02T11:22:31.441Z,42.00
2022-09-02T11:28:44.227Z,42.00
2022-09-02T11:34:58.386Z,42.10
2022-09-02T11:41:35.861Z,42.00
2022-09-02T11:48:02.142Z,42.00
2022-09-02T11:54:15.703Z,42.10
2022-09-02T12:00:39.602Z,42.30
2022-09-02T12:07:35.004Z,42.80
2022-09-02T12:20:01.604Z,42.20
2022-09-02T12:26:16.103Z,42.30
2022-09-02T12:33:11.536Z,42.40
2022-09-02T12:39:53.430Z,42.70
2022-09-02T12:46:08.391Z,42.80
2022-09-02T12:52:37.202Z,43.50
2022-09-02T12:58:50.700Z,43.80
2022-09-02T13:05:09.250Z,43.30
2022-09-02T13:12:14.619Z,43.10
2022-09-02T13:25:52.935Z,42.70
2022-09-02T13:32:12.107Z,43.00
2022-09-02T13:38:24.638Z,42.60
2022-09-02T13:44:36.039Z,42.60
2022-09-02T13:50:46.460Z,42.80
2022-09-02T13:56:57.824Z,42.50
2022-09-02T14:03:09.090Z,43.20
2022-09-02T14:09:26.632Z,42.50
2022-09-02T14:15:37.294Z,42.50
2022-09-02T14:21:54.315Z,42.70
2022-09-02T14:28:03.952Z,42.60
2022-09-02T14:34:39.450Z,42.50
2022-09-02T14:40:49.404Z,42.50
2022-09-02T14:47:02.418Z,42.30
2022-09-02T14:53:13.678Z,42.10
2022-09-02T14:59:23.053Z,42.10
2022-09-02T15:05:33.770Z,42.00
2022-09-02T15:11:45.228Z,41.90
2022-09-02T15:17:53.349Z,42.00
2022-09-02T15:24:03.435Z,41.90
2022-09-02T15:30:15.921Z,41.80
2022-09-02T15:36:27.127Z,41.70
2022-09-02T15:42:36.185Z,41.70
2022-09-02T15:48:43.412Z,41.70
2022-09-02T15:54:54.416Z,41.50
2022-09-02T16:01:12.453Z,41.40
2022-09-02T16:07:22.183Z,41.90
2022-09-02T16:13:32.325Z,41.80
2022-09-02T16:19:43.208Z,41.30
2022-09-02T16:25:52.326Z,41.10
2022-09-02T16:32:24.661Z,41.10
2022-09-02T16:38:20.462Z,41.10
2022-09-02T16:44:31.786Z,41.80
2022-09-02T16:50:45.962Z,41.40
2022-09-02T16:56:58.793Z,41.10
2022-09-02T17:03:08.570Z,41.20
2022-09-02T17:09:21.062Z,41.10
2022-09-02T17:15:35.588Z,41.10
2022-09-02T17:21:46.247Z,41.30
2022-09-02T17:27:58.147Z,41.30
2022-09-02T17:34:11.737Z,41.20
2022-09-02T17:40:41.352Z,41.20
2022-09-02T17:46:52.042Z,41.40
2022-09-02T17:53:03.340Z,41.30
2022-09-02T17:59:22.749Z,41.40
2022-09-02T18:05:37.775Z,41.60
2022-09-02T18:11:49.192Z,41.90
2022-09-02T18:18:03.303Z,42.50
2022-09-02T18:24:18.440Z,42.90
2022-09-02T18:30:33.528Z,42.10
2022-09-02T18:36:48.650Z,42.40
2022-09-02T18:43:05.026Z,42.40
2022-09-02T18:49:17.182Z,42.50
2022-09-02T18:55:32.135Z,42.70
2022-09-02T19:01:46.181Z,43.20
2022-09-02T19:08:17.259Z,42.70
2022-09-02T19:14:30.498Z,42.80
2022-09-02T19:20:43.915Z,42.90
2022-09-02T19:26:56.633Z,42.70
2022-09-02T19:33:06.672Z,42.90
2022-09-02T19:39:18.945Z,42.80
2022-09-02T19:45:31.625Z,43.10
2022-09-02T19:51:47.789Z,43.00
2022-09-02T19:57:56.632Z,42.70
2022-09-02T20:04:09.447Z,42.70
2022-09-02T20:10:27.766Z,42.70
2022-09-02T20:16:31.064Z,42.70
2022-09-02T20:22:46.409Z,42.50
2022-09-02T20:29:03.642Z,42.70
2022-09-02T20:35:20.993Z,42.70
2022-09-02T20:41:37.323Z,43.00
2022-09-02T20:47:54.402Z,42.90
2022-09-02T20:54:27.802Z,43.20
2022-09-02T21:00:38.611Z,43.20
2022-09-02T21:06:54.413Z,43.40
2022-09-02T21:13:07.171Z,42.40
2022-09-02T21:19:24.882Z,41.60
2022-09-02T21:25:40.001Z,41.00
2022-09-02T21:31:54.590Z,41.70
2022-09-02T21:38:10.952Z,41.70
2022-09-02T21:44:22.522Z,41.60
2022-09-02T21:50:38.075Z,41.60
2022-09-02T21:56:57.249Z,42.40
2022-09-02T22:03:11.848Z,42.20
2022-09-02T22:09:22.435Z,42.20
2022-09-02T22:15:36.774Z,40.90
2022-09-02T22:21:50.560Z,40.70
2022-09-02T22:28:04.950Z,40.40
2022-09-02T22:34:16.149Z,41.30
2022-09-02T22:40:31.571Z,41.20
2022-09-02T22:47:02.419Z,41.00
2022-09-02T22:53:15.297Z,40.80
2022-09-02T22:59:41.347Z,41.20
2022-09-02T23:05:57.324Z,41.10
2022-09-02T23:12:07.664Z,41.70
2022-09-02T23:18:21.436Z,42.10
2022-09-02T23:24:41.727Z,44.00
2022-09-02T23:31:05.236Z,44.40
2022-09-02T23:37:19.972Z,44.00
2022-09-02T23:43:32.661Z,43.90
2022-09-02T23:49:46.722Z,43.90
2022-09-02T23:56:04.231Z,44.60
